HKMO/MBA METAR and TAF weather

Enter ICAO airport designator
Station Type Date Time Source
HKMO METAR 2018/07/19 07:00 UTC NOAA

HKMO 190700Z 20013KT 9999 SCT023 26/21 Q1019 NOSIG


Station Type Date Time Source
HKMO Decoded METAR 2018/07/19 07:00 UTC NOAA

Mombasa, Kenya (HKMO) 04-02S 039-37E 55M
Jul 19, 2018 - 03:00 AM EDT / 2018.07.19 0700 UTC
Wind: from the SSW (200 degrees) at 15 MPH (13 KT):0
Visibility: greater than 7 mile(s):0
Sky conditions: partly cloudy
Temperature: 78 F (26 C)
Dew Point: 69 F (21 C)
Relative Humidity: 73%
Pressure (altimeter): 30.09 in. Hg (1019 hPa)
ob: HKMO 190700Z 20013KT 9999 SCT023 26/21 Q1019 NOSIG
cycle: 7

Station Type Date Time Source
HKMO TAF 2018/07/19 06:57 UTC NOAA

TAF HKMO 190500Z 1906/2012 21015KT 9999 FEW020
BECMG 1909/1912 18020KT FEW025
BECMG 1918/1921 20010KT FEW022
BECMG 2000/2006 22005KT FEW019
BECMG 2009/2012 18020KT FEW025


Example: see airport list